createdAt,value
2022-08-29T00:00:49.407Z,17.00
2022-08-29T00:03:17.720Z,17.20
2022-08-29T00:05:49.944Z,17.20
2022-08-29T00:08:17.635Z,16.90
2022-08-29T00:10:44.867Z,16.90
2022-08-29T00:13:13.619Z,17.10
2022-08-29T00:15:45.190Z,17.10
2022-08-29T00:18:13.962Z,16.80
2022-08-29T00:20:41.805Z,16.50
2022-08-29T00:23:09.424Z,16.60
2022-08-29T00:25:37.180Z,16.50
2022-08-29T00:28:04.603Z,16.90
2022-08-29T00:30:33.362Z,16.60
2022-08-29T00:33:00.346Z,16.60
2022-08-29T00:35:33.665Z,17.00
2022-08-29T00:38:02.088Z,16.20
2022-08-29T00:40:36.269Z,16.20
2022-08-29T00:43:03.902Z,16.40
2022-08-29T00:45:31.469Z,16.60
2022-08-29T00:48:05.110Z,16.80
2022-08-29T00:50:35.435Z,16.60
2022-08-29T00:53:04.361Z,16.50
2022-08-29T00:55:34.481Z,16.70
2022-08-29T00:58:07.637Z,16.30
2022-08-29T01:00:35.013Z,16.20
2022-08-29T01:03:02.917Z,16.40
2022-08-29T01:05:29.680Z,16.20
2022-08-29T01:07:56.764Z,16.20
2022-08-29T01:10:42.244Z,16.50
2022-08-29T01:13:10.435Z,16.30
2022-08-29T01:15:40.360Z,16.40
2022-08-29T01:18:09.138Z,16.20
2022-08-29T01:21:01.751Z,16.50
2022-08-29T01:23:42.692Z,16.00
2022-08-29T01:26:11.344Z,15.90
2022-08-29T01:28:41.776Z,15.80
2022-08-29T01:31:11.628Z,15.80
2022-08-29T01:33:54.347Z,15.90
2022-08-29T01:36:25.196Z,15.80
2022-08-29T01:38:52.105Z,16.00
2022-08-29T01:41:20.798Z,15.60
2022-08-29T01:43:52.091Z,16.20
2022-08-29T01:46:30.828Z,15.80
2022-08-29T01:48:58.329Z,16.10
2022-08-29T01:51:25.642Z,15.90
2022-08-29T01:53:53.053Z,16.10
2022-08-29T01:56:27.558Z,16.30
2022-08-29T01:58:55.393Z,15.80
2022-08-29T02:01:28.189Z,15.90
2022-08-29T02:03:55.290Z,15.70
2022-08-29T02:06:22.120Z,16.00
2022-08-29T02:08:48.853Z,15.50
2022-08-29T02:11:17.522Z,15.70
2022-08-29T02:13:51.539Z,15.60
2022-08-29T02:16:19.259Z,16.00
2022-08-29T02:18:46.358Z,15.80
2022-08-29T02:21:15.475Z,15.80
2022-08-29T02:23:43.598Z,15.60
2022-08-29T02:26:10.386Z,16.00
2022-08-29T02:28:38.464Z,15.70
2022-08-29T02:31:06.661Z,15.90
2022-08-29T02:33:33.476Z,15.70
2022-08-29T02:36:00.266Z,15.70
2022-08-29T02:38:28.553Z,15.70
2022-08-29T02:40:55.850Z,16.00
2022-08-29T02:43:23.671Z,15.70
2022-08-29T02:45:50.766Z,15.70
2022-08-29T02:48:18.111Z,16.50
2022-08-29T02:50:48.217Z,16.00
2022-08-29T02:53:20.092Z,16.20
2022-08-29T02:55:47.704Z,16.00
2022-08-29T02:58:15.907Z,15.90
2022-08-29T03:00:42.945Z,15.80
2022-08-29T03:03:10.044Z,15.70
2022-08-29T03:05:37.254Z,15.70
2022-08-29T03:08:07.821Z,15.70
2022-08-29T03:10:35.053Z,15.80
2022-08-29T03:13:01.807Z,16.00
2022-08-29T03:15:29.174Z,15.90
2022-08-29T03:17:56.413Z,16.30
2022-08-29T03:20:24.648Z,16.20
2022-08-29T03:22:53.697Z,16.30
2022-08-29T03:25:21.644Z,16.00
2022-08-29T03:27:48.556Z,16.00
2022-08-29T03:30:17.861Z,16.20
2022-08-29T03:32:45.666Z,16.20
2022-08-29T03:35:18.262Z,16.40
2022-08-29T03:37:45.507Z,15.90
2022-08-29T03:40:13.292Z,16.10
2022-08-29T03:42:41.138Z,16.10
2022-08-29T03:45:13.390Z,16.10
2022-08-29T03:47:41.136Z,16.00
2022-08-29T03:50:08.473Z,16.10
2022-08-29T03:52:35.220Z,15.80
2022-08-29T03:55:02.191Z,15.80
2022-08-29T03:57:32.598Z,15.80
2022-08-29T04:00:00.103Z,15.80
2022-08-29T04:02:27.037Z,16.50
2022-08-29T04:05:08.858Z,16.10
2022-08-29T04:07:41.803Z,16.30
2022-08-29T04:10:10.602Z,15.70
2022-08-29T04:12:37.583Z,15.80
2022-08-29T04:15:05.929Z,16.10
2022-08-29T04:17:33.456Z,15.80
2022-08-29T04:20:00.554Z,15.90
2022-08-29T04:22:27.375Z,15.80
2022-08-29T04:24:54.804Z,15.60
2022-08-29T04:27:21.743Z,15.70
2022-08-29T04:29:48.650Z,15.70
2022-08-29T04:32:16.593Z,15.90
2022-08-29T04:34:43.560Z,15.90
2022-08-29T04:37:10.346Z,16.00
2022-08-29T04:39:37.395Z,16.60
2022-08-29T04:42:04.616Z,16.10
2022-08-29T04:44:31.937Z,16.10
2022-08-29T04:46:58.668Z,16.20
2022-08-29T04:49:25.793Z,15.80
2022-08-29T04:51:53.743Z,15.80
2022-08-29T04:54:20.953Z,16.30
2022-08-29T04:56:47.715Z,16.00
2022-08-29T04:59:16.605Z,16.10
2022-08-29T05:01:43.620Z,16.10
2022-08-29T05:04:14.320Z,15.90
2022-08-29T05:06:41.915Z,16.10
2022-08-29T05:09:08.787Z,15.90
2022-08-29T05:11:35.683Z,16.10
2022-08-29T05:14:02.675Z,16.00
2022-08-29T05:16:30.870Z,15.70
2022-08-29T05:18:59.662Z,15.80
2022-08-29T05:21:35.212Z,16.10
2022-08-29T05:24:05.651Z,15.60
2022-08-29T05:26:35.947Z,15.80
2022-08-29T05:29:04.198Z,16.00
2022-08-29T05:31:36.908Z,16.20
2022-08-29T05:34:18.389Z,15.70
2022-08-29T05:36:52.011Z,15.80
2022-08-29T05:39:18.695Z,15.80
2022-08-29T05:41:45.657Z,15.70
2022-08-29T05:44:12.639Z,15.90
2022-08-29T05:46:40.048Z,15.70
2022-08-29T05:49:06.813Z,16.10
2022-08-29T05:51:38.797Z,15.90
2022-08-29T05:54:06.844Z,15.90
2022-08-29T05:56:33.637Z,15.90
2022-08-29T05:59:00.540Z,16.00
2022-08-29T06:01:32.899Z,15.90
2022-08-29T06:04:00.605Z,16.00
2022-08-29T06:06:28.815Z,16.60
2022-08-29T06:08:56.642Z,16.20
2022-08-29T06:11:31.808Z,16.40
2022-08-29T06:13:59.526Z,16.30
2022-08-29T06:16:27.822Z,16.50
2022-08-29T06:18:54.930Z,16.90
2022-08-29T06:21:22.149Z,17.00
2022-08-29T06:23:49.107Z,17.40
2022-08-29T06:26:16.480Z,16.70
2022-08-29T06:28:45.995Z,16.90
2022-08-29T06:31:17.410Z,16.70
2022-08-29T06:33:44.477Z,17.00
2022-08-29T06:36:12.473Z,17.00
2022-08-29T06:38:39.221Z,16.70
2022-08-29T06:41:09.053Z,17.00
2022-08-29T06:43:36.109Z,16.90
2022-08-29T06:46:03.986Z,17.00
2022-08-29T06:48:31.045Z,17.00
2022-08-29T06:51:00.654Z,17.70
2022-08-29T06:53:32.043Z,17.90
2022-08-29T06:56:05.348Z,17.40
2022-08-29T06:58:32.836Z,17.30
2022-08-29T07:01:04.978Z,17.80
2022-08-29T07:03:31.777Z,17.30
2022-08-29T07:05:58.522Z,17.30
2022-08-29T07:08:25.424Z,17.60
2022-08-29T07:10:52.293Z,17.50
2022-08-29T07:13:18.998Z,17.30
2022-08-29T07:15:45.823Z,17.60
2022-08-29T07:18:12.702Z,17.60
2022-08-29T07:20:40.186Z,17.50
2022-08-29T07:23:08.130Z,17.50
2022-08-29T07:25:36.490Z,17.60
2022-08-29T07:28:04.827Z,18.20
2022-08-29T07:30:32.405Z,17.90
2022-08-29T07:32:59.970Z,18.50
2022-08-29T07:35:30.360Z,18.50
2022-08-29T07:38:03.934Z,18.80
2022-08-29T07:40:31.050Z,18.60
2022-08-29T07:42:57.819Z,18.70
2022-08-29T07:45:24.587Z,18.80
2022-08-29T07:47:51.525Z,18.90
2022-08-29T07:50:18.658Z,19.00
2022-08-29T07:52:45.612Z,19.10
2022-08-29T07:55:12.460Z,19.20
2022-08-29T07:57:39.692Z,19.40
2022-08-29T08:00:10.517Z,19.30
2022-08-29T08:02:37.276Z,19.30
2022-08-29T08:05:06.790Z,19.40
2022-08-29T08:07:35.209Z,19.50
2022-08-29T08:10:03.303Z,19.60
2022-08-29T08:12:30.173Z,19.60
2022-08-29T08:14:57.332Z,19.70
2022-08-29T08:17:24.433Z,19.90
2022-08-29T08:19:51.444Z,19.80
2022-08-29T08:22:18.191Z,19.80
2022-08-29T08:24:45.187Z,20.00
2022-08-29T08:27:12.146Z,19.90
2022-08-29T08:29:39.052Z,20.00
2022-08-29T08:32:05.843Z,20.00
2022-08-29T08:34:35.739Z,20.10
2022-08-29T08:37:07.609Z,20.10
2022-08-29T08:39:35.781Z,20.20
2022-08-29T08:42:15.835Z,20.30
2022-08-29T08:45:08.290Z,20.30
2022-08-29T08:47:40.806Z,20.40
2022-08-29T08:50:37.893Z,20.50
2022-08-29T08:53:13.122Z,20.50
2022-08-29T08:55:42.793Z,20.50
2022-08-29T08:58:27.219Z,20.60
2022-08-29T09:01:03.803Z,20.60
2022-08-29T09:03:46.787Z,20.70
2022-08-29T09:06:36.413Z,20.80
2022-08-29T09:09:14.395Z,20.80
2022-08-29T09:12:11.967Z,20.90
2022-08-29T09:15:00.089Z,20.90
2022-08-29T09:17:47.857Z,21.00
2022-08-29T09:20:24.848Z,21.10
2022-08-29T09:23:33.275Z,21.10
2022-08-29T09:26:00.078Z,21.20
2022-08-29T09:28:26.963Z,21.30
2022-08-29T09:31:29.551Z,21.40
2022-08-29T09:34:11.960Z,21.50
2022-08-29T09:36:48.892Z,21.70
2022-08-29T09:39:23.242Z,21.70
2022-08-29T09:41:57.324Z,21.70
2022-08-29T09:44:32.147Z,21.80
2022-08-29T09:47:28.997Z,21.90
2022-08-29T09:50:04.786Z,21.90
2022-08-29T09:52:32.512Z,22.00
2022-08-29T09:55:36.391Z,22.10
2022-08-29T09:58:15.716Z,22.10
2022-08-29T10:01:01.651Z,22.20
2022-08-29T10:03:33.715Z,22.30
2022-08-29T10:06:08.861Z,22.30
2022-08-29T10:08:38.111Z,22.40
2022-08-29T10:11:17.431Z,22.50
2022-08-29T10:14:07.230Z,22.60
2022-08-29T10:16:53.945Z,22.60
2022-08-29T10:19:33.063Z,22.70
2022-08-29T10:22:37.610Z,22.70
2022-08-29T10:25:17.671Z,22.80
2022-08-29T10:28:00.462Z,22.90
2022-08-29T10:30:33.959Z,23.00
2022-08-29T10:33:19.952Z,23.00
2022-08-29T10:35:56.352Z,22.90
2022-08-29T10:38:43.849Z,22.90
2022-08-29T10:41:31.601Z,22.90
2022-08-29T10:44:22.659Z,23.10
2022-08-29T10:47:14.792Z,23.20
2022-08-29T10:49:45.135Z,23.30
2022-08-29T10:52:50.734Z,23.30
2022-08-29T10:55:29.173Z,23.40
2022-08-29T10:58:16.995Z,23.50
2022-08-29T11:00:49.046Z,23.50
2022-08-29T11:03:55.333Z,23.60
2022-08-29T11:06:27.653Z,23.60
2022-08-29T11:09:19.304Z,23.60
2022-08-29T11:12:10.135Z,23.40
2022-08-29T11:15:02.146Z,23.20
2022-08-29T11:17:38.103Z,23.10
2022-08-29T11:20:11.666Z,23.20
2022-08-29T11:23:15.263Z,23.30
2022-08-29T11:25:43.362Z,23.30
2022-08-29T11:28:32.035Z,23.50
2022-08-29T11:31:08.869Z,23.60
2022-08-29T11:34:03.618Z,23.70
2022-08-29T11:36:43.319Z,23.80
2022-08-29T11:39:29.018Z,23.90
2022-08-29T11:41:58.879Z,23.90
2022-08-29T11:44:41.187Z,24.00
2022-08-29T11:47:40.926Z,24.00
2022-08-29T11:50:22.183Z,24.10
2022-08-29T11:53:16.793Z,24.10
2022-08-29T11:56:05.202Z,24.20
2022-08-29T11:58:32.831Z,24.20
2022-08-29T12:01:00.336Z,24.10
2022-08-29T12:03:33.205Z,24.20
2022-08-29T12:06:21.711Z,24.30
2022-08-29T12:09:13.966Z,24.30
2022-08-29T12:12:02.273Z,24.30
2022-08-29T12:14:34.292Z,24.30
2022-08-29T12:17:08.601Z,24.30
2022-08-29T12:19:52.422Z,24.30
2022-08-29T12:22:53.719Z,24.40
2022-08-29T12:25:59.311Z,24.50
2022-08-29T12:28:42.153Z,24.60
2022-08-29T12:31:21.191Z,24.60
2022-08-29T12:34:06.790Z,24.70
2022-08-29T12:37:00.295Z,24.70
2022-08-29T12:39:40.580Z,24.60
2022-08-29T12:42:19.444Z,24.60
2022-08-29T12:44:57.743Z,24.60
2022-08-29T12:47:45.732Z,24.70
2022-08-29T12:50:26.670Z,24.80
2022-08-29T12:53:01.022Z,24.80
2022-08-29T12:55:29.487Z,24.80
2022-08-29T12:57:57.616Z,24.70
2022-08-29T13:00:28.307Z,24.70
2022-08-29T13:02:59.387Z,24.80
2022-08-29T13:05:29.221Z,25.00
2022-08-29T13:07:58.938Z,25.10
2022-08-29T13:10:27.688Z,25.10
2022-08-29T13:13:05.997Z,25.20
2022-08-29T13:15:33.513Z,25.30
2022-08-29T13:18:00.731Z,25.30
2022-08-29T13:20:48.768Z,25.10
2022-08-29T13:23:30.226Z,25.00
2022-08-29T13:26:02.437Z,24.90
2022-08-29T13:28:43.801Z,25.10
2022-08-29T13:31:21.248Z,25.20
2022-08-29T13:33:48.004Z,25.60
2022-08-29T13:36:36.578Z,25.70
2022-08-29T13:39:28.103Z,25.90
2022-08-29T13:41:57.805Z,26.00
2022-08-29T13:44:28.544Z,26.00
2022-08-29T13:46:59.505Z,26.10
2022-08-29T13:49:28.827Z,26.40
2022-08-29T13:51:56.445Z,27.00
2022-08-29T13:54:24.272Z,27.70
2022-08-29T13:56:54.387Z,28.50
2022-08-29T13:59:25.811Z,29.60
2022-08-29T14:02:10.392Z,30.60
2022-08-29T14:04:40.811Z,31.90
2022-08-29T14:07:28.657Z,32.90
2022-08-29T14:09:55.796Z,33.20
2022-08-29T14:12:33.053Z,33.50
2022-08-29T14:15:05.367Z,33.90
2022-08-29T14:17:36.313Z,34.80
2022-08-29T14:20:03.968Z,34.90
2022-08-29T14:22:31.264Z,35.30
2022-08-29T14:24:58.039Z,36.00
2022-08-29T14:27:24.911Z,35.40
2022-08-29T14:29:51.676Z,35.10
2022-08-29T14:32:18.643Z,35.20
2022-08-29T14:34:50.885Z,35.30
2022-08-29T14:37:18.848Z,35.40
2022-08-29T14:39:49.615Z,36.40
2022-08-29T14:42:17.593Z,36.10
2022-08-29T14:44:44.754Z,36.80
2022-08-29T14:47:11.617Z,36.80
2022-08-29T14:49:38.866Z,36.70
2022-08-29T14:52:06.063Z,36.20
2022-08-29T14:54:33.296Z,36.10
2022-08-29T14:57:00.601Z,36.70
2022-08-29T14:59:28.090Z,35.90
2022-08-29T15:01:55.479Z,35.30
2022-08-29T15:04:36.282Z,35.90
2022-08-29T15:07:06.078Z,35.20
2022-08-29T15:09:33.052Z,34.70
2022-08-29T15:11:59.788Z,34.10
2022-08-29T15:14:26.552Z,33.70
2022-08-29T15:16:53.300Z,33.10
2022-08-29T15:22:09.007Z,32.30
2022-08-29T15:24:36.439Z,32.20
2022-08-29T15:27:03.669Z,32.00
2022-08-29T15:29:30.470Z,31.90
2022-08-29T15:31:57.572Z,31.80
2022-08-29T15:34:29.004Z,32.20
2022-08-29T15:36:56.802Z,32.20
2022-08-29T15:39:25.562Z,32.50
2022-08-29T15:41:52.368Z,32.80
2022-08-29T15:44:19.343Z,32.70
2022-08-29T15:46:50.743Z,32.50
2022-08-29T15:49:19.794Z,32.60
2022-08-29T15:51:47.323Z,32.70
2022-08-29T15:54:15.114Z,32.40
2022-08-29T15:56:41.959Z,31.90
2022-08-29T15:59:11.250Z,31.40
2022-08-29T16:01:47.415Z,31.30
2022-08-29T16:04:16.936Z,31.50
2022-08-29T16:06:43.675Z,31.30
2022-08-29T16:09:15.194Z,31.40
2022-08-29T16:11:48.169Z,31.00
2022-08-29T16:14:57.670Z,31.00
2022-08-29T16:17:04.841Z,30.70
2022-08-29T16:19:32.323Z,30.50
2022-08-29T16:22:04.291Z,30.10
2022-08-29T16:24:33.317Z,29.80
2022-08-29T16:27:00.207Z,29.50
2022-08-29T16:29:28.130Z,29.10
2022-08-29T16:31:57.993Z,28.50
2022-08-29T16:34:26.540Z,28.20
2022-08-29T16:37:01.084Z,27.80
2022-08-29T16:39:29.293Z,27.40
2022-08-29T16:41:56.214Z,27.30
2022-08-29T16:44:24.029Z,27.20
2022-08-29T16:46:51.993Z,27.00
2022-08-29T16:49:19.432Z,26.70
2022-08-29T16:51:46.206Z,26.40
2022-08-29T16:54:13.499Z,26.10
2022-08-29T16:56:40.432Z,25.90
2022-08-29T16:59:07.711Z,25.60
2022-08-29T17:01:46.269Z,25.60
2022-08-29T17:04:19.575Z,25.50
2022-08-29T17:06:48.120Z,25.60
2022-08-29T17:09:17.230Z,25.40
2022-08-29T17:11:44.943Z,25.40
2022-08-29T17:14:13.002Z,25.30
2022-08-29T17:16:40.557Z,25.00
2022-08-29T17:19:08.275Z,24.80
2022-08-29T17:21:35.504Z,24.50
2022-08-29T17:24:03.869Z,24.40
2022-08-29T17:26:31.284Z,24.30
2022-08-29T17:28:58.039Z,24.20
2022-08-29T17:31:24.827Z,24.00
2022-08-29T17:33:51.666Z,24.00
2022-08-29T17:36:19.400Z,23.90
2022-08-29T17:38:47.695Z,23.80
2022-08-29T17:41:19.341Z,23.70
2022-08-29T17:43:48.715Z,23.60
2022-08-29T17:46:19.630Z,23.60
2022-08-29T17:48:46.380Z,23.40
2022-08-29T17:51:13.329Z,23.20
2022-08-29T17:53:42.477Z,23.10
2022-08-29T17:56:21.142Z,23.00
2022-08-29T17:58:48.435Z,23.00
2022-08-29T18:01:16.940Z,22.90
2022-08-29T18:03:45.774Z,22.60
2022-08-29T18:06:14.909Z,22.50
2022-08-29T18:08:45.886Z,22.40
2022-08-29T18:11:16.017Z,22.30
2022-08-29T18:13:43.030Z,22.20
2022-08-29T18:16:10.552Z,22.10
2022-08-29T18:18:38.644Z,22.10
2022-08-29T18:21:05.988Z,21.90
2022-08-29T18:23:33.231Z,21.80
2022-08-29T18:26:00.902Z,21.90
2022-08-29T18:28:28.084Z,21.80
2022-08-29T18:30:55.430Z,21.60
2022-08-29T18:33:23.205Z,21.50
2022-08-29T18:35:51.983Z,21.40
2022-08-29T18:38:19.320Z,21.40
2022-08-29T18:40:47.047Z,21.20
2022-08-29T18:43:18.328Z,21.10
2022-08-29T18:45:45.149Z,21.10
2022-08-29T18:48:11.973Z,21.00
2022-08-29T18:50:38.755Z,21.00
2022-08-29T18:53:17.903Z,21.00
2022-08-29T18:55:52.213Z,20.90
2022-08-29T18:58:26.810Z,20.80
2022-08-29T19:00:54.610Z,20.80
2022-08-29T19:03:21.967Z,20.80
2022-08-29T19:05:51.728Z,20.70
2022-08-29T19:08:21.335Z,20.60
2022-08-29T19:10:48.484Z,20.70
2022-08-29T19:13:16.839Z,20.50
2022-08-29T19:15:47.184Z,20.70
2022-08-29T19:18:16.044Z,20.40
2022-08-29T19:21:01.384Z,20.40
2022-08-29T19:23:29.966Z,20.40
2022-08-29T19:25:56.964Z,20.40
2022-08-29T19:28:23.971Z,20.30
2022-08-29T19:30:52.086Z,20.30
2022-08-29T19:33:20.263Z,20.20
2022-08-29T19:35:49.749Z,20.20
2022-08-29T19:38:17.481Z,20.10
2022-08-29T19:40:44.503Z,20.10
2022-08-29T19:43:14.107Z,20.10
2022-08-29T19:45:42.594Z,20.00
2022-08-29T19:48:10.758Z,20.00
2022-08-29T19:50:47.720Z,19.80
2022-08-29T19:53:20.000Z,19.60
2022-08-29T19:55:53.684Z,19.60
2022-08-29T19:58:21.690Z,19.50
2022-08-29T20:00:48.654Z,19.50
2022-08-29T20:03:16.433Z,19.40
2022-08-29T20:05:43.267Z,19.40
2022-08-29T20:08:10.319Z,19.40
2022-08-29T20:10:37.513Z,19.40
2022-08-29T20:13:04.231Z,19.30
2022-08-29T20:15:31.062Z,19.40
2022-08-29T20:17:59.961Z,19.70
2022-08-29T20:20:31.334Z,19.20
2022-08-29T20:22:58.202Z,19.30
2022-08-29T20:25:25.249Z,19.10
2022-08-29T20:27:52.926Z,19.10
2022-08-29T20:30:24.503Z,19.20
2022-08-29T20:32:51.990Z,19.10
2022-08-29T20:35:39.708Z,19.00
2022-08-29T20:38:07.161Z,18.90
2022-08-29T20:40:37.663Z,19.00
2022-08-29T20:43:04.802Z,19.20
2022-08-29T20:45:31.676Z,18.70
2022-08-29T20:47:58.437Z,18.70
2022-08-29T20:50:25.668Z,18.70
2022-08-29T20:52:54.155Z,18.70
2022-08-29T20:55:22.651Z,18.70
2022-08-29T20:57:49.355Z,18.60
2022-08-29T21:00:16.313Z,19.20
2022-08-29T21:03:01.916Z,18.60
2022-08-29T21:05:43.774Z,18.90
2022-08-29T21:08:15.063Z,18.40
2022-08-29T21:10:42.732Z,18.30
2022-08-29T21:13:10.237Z,18.20
2022-08-29T21:15:38.595Z,18.30
2022-08-29T21:18:06.114Z,18.30
2022-08-29T21:20:37.301Z,18.20
2022-08-29T21:23:13.539Z,18.30
2022-08-29T21:25:40.838Z,18.20
2022-08-29T21:28:08.276Z,18.20
2022-08-29T21:30:36.128Z,18.20
2022-08-29T21:33:03.519Z,18.70
2022-08-29T21:35:30.349Z,18.00
2022-08-29T21:37:57.142Z,18.40
2022-08-29T21:40:26.638Z,18.00
2022-08-29T21:42:55.239Z,18.00
2022-08-29T21:45:23.162Z,17.70
2022-08-29T21:47:54.987Z,17.70
2022-08-29T21:50:23.750Z,17.70
2022-08-29T21:52:50.739Z,17.50
2022-08-29T21:55:18.669Z,17.80
2022-08-29T21:57:52.083Z,17.50
2022-08-29T22:00:20.574Z,17.60
2022-08-29T22:02:48.093Z,17.50
2022-08-29T22:05:15.611Z,17.60
2022-08-29T22:07:43.164Z,17.80
2022-08-29T22:10:16.240Z,17.60
2022-08-29T22:12:43.366Z,17.50
2022-08-29T22:15:28.785Z,17.60
2022-08-29T22:17:55.529Z,17.40
2022-08-29T22:20:22.304Z,17.50
2022-08-29T22:22:49.133Z,17.60
2022-08-29T22:25:15.904Z,17.50
2022-08-29T22:27:42.715Z,17.40
2022-08-29T22:30:10.343Z,17.40
2022-08-29T22:32:37.463Z,17.30
2022-08-29T22:35:09.197Z,17.40
2022-08-29T22:37:39.530Z,17.40
2022-08-29T22:40:09.683Z,17.60
2022-08-29T22:42:37.763Z,17.50
2022-08-29T22:45:09.765Z,17.50
2022-08-29T22:47:38.384Z,17.30
2022-08-29T22:50:08.409Z,17.60
2022-08-29T22:52:35.527Z,17.20
2022-08-29T22:55:04.566Z,17.30
2022-08-29T22:57:31.364Z,17.50
2022-08-29T22:59:58.074Z,17.10
2022-08-29T23:02:24.896Z,17.30
2022-08-29T23:04:52.382Z,17.30
2022-08-29T23:07:19.565Z,17.30
2022-08-29T23:09:46.456Z,17.30
2022-08-29T23:12:14.165Z,17.90
2022-08-29T23:14:43.366Z,17.30
2022-08-29T23:17:10.126Z,17.20
2022-08-29T23:19:40.970Z,17.60
2022-08-29T23:22:09.063Z,17.00
2022-08-29T23:24:37.673Z,17.30
2022-08-29T23:27:04.860Z,16.80
2022-08-29T23:29:32.908Z,16.90
2022-08-29T23:32:00.855Z,17.30
2022-08-29T23:34:28.353Z,17.00
2022-08-29T23:36:55.087Z,17.00
2022-08-29T23:39:22.003Z,17.10
2022-08-29T23:41:48.798Z,17.30
2022-08-29T23:44:15.658Z,17.50
2022-08-29T23:46:42.482Z,17.70
2022-08-29T23:49:09.332Z,17.70
2022-08-29T23:51:36.105Z,17.10
2022-08-29T23:54:02.929Z,16.90
2022-08-29T23:56:29.645Z,17.10
2022-08-29T23:58:56.874Z,17.00
